Time;durP1;ratioP1;P1;durP2;ratioP2;P2;SDS_P1;SDS_P2;PMS_P1;PMS_P2;Temp;Humidity;BMP_temperature;BMP_pressure;BME280_temperature;BME280_humidity;BME280_pressure;Samples;Min_cycle;Max_cycle;Signal;HPM_P1;HPM_P2
2023/01/08 00:02:27;;;;;;;5.50;3.30;;;8.30;64.30;;;3.08;94.56;95118.53;4954265;28;20084;-56
2023/01/08 00:04:53;;;;;;;5.10;3.20;;;8.20;64.10;;;2.91;95.49;95126.28;4952842;28;20076;-56
2023/01/08 00:07:21;;;;;;;4.68;3.28;;;8.00;63.80;;;2.79;98.39;95121.03;4970660;28;20022;-56
2023/01/08 00:09:49;;;;;;;5.97;3.42;;;7.90;63.90;;;2.77;98.43;95116.00;4969606;28;20042;-55
2023/01/08 00:12:15;;;;;;;5.07;3.63;;;7.80;64.00;;;2.64;98.56;95108.31;4971454;28;20113;-57
2023/01/08 00:14:41;;;;;;;4.43;3.10;;;7.70;64.20;;;2.61;98.59;95119.28;4971431;28;20369;-57
2023/01/08 00:17:12;;;;;;;5.25;3.60;;;7.60;64.20;;;2.50;98.71;95102.44;4965254;28;20035;-55
2023/01/08 00:19:40;;;;;;;5.07;3.10;;;7.50;64.40;;;2.37;98.65;95101.84;4967423;28;20108;-58
2023/01/08 00:22:09;;;;;;;7.35;3.50;;;7.40;64.30;;;2.29;99.52;95103.78;4969471;28;20026;-53
2023/01/08 00:24:35;;;;;;;4.78;3.10;;;7.30;64.40;;;2.22;99.74;95097.78;4956631;28;20081;-54
2023/01/08 00:27:01;;;;;;;5.80;3.47;;;7.20;64.50;;;2.16;99.27;95092.63;4969522;28;20469;-53
2023/01/08 00:29:27;;;;;;;7.50;3.00;;;7.20;64.60;;;2.06;99.74;95095.78;4971187;28;20392;-56
2023/01/08 00:31:53;;;;;;;3.78;2.95;;;7.00;64.60;;;2.00;99.54;95086.19;4971098;28;20035;-54
2023/01/08 00:34:18;;;;;;;5.95;3.35;;;7.00;64.70;;;1.92;100.00;95089.13;4952198;28;20026;-57
2023/01/08 00:36:44;;;;;;;4.78;3.03;;;6.90;64.70;;;1.82;99.57;95082.59;4953190;28;20030;-55
2023/01/08 00:39:10;;;;;;;6.05;3.35;;;6.80;64.80;;;1.77;100.00;95079.00;4969825;28;20026;-56
2023/01/08 00:41:36;;;;;;;4.38;3.22;;;6.80;64.90;;;1.69;100.00;95072.22;4970866;28;20026;-54
2023/01/08 00:44:02;;;;;;;5.35;3.45;;;6.70;65.00;;;1.62;100.00;95059.19;4970726;28;20037;-58
2023/01/08 00:46:28;;;;;;;6.38;3.70;;;6.60;65.00;;;1.62;100.00;95055.75;4951719;28;20410;-56
2023/01/08 00:48:53;;;;;;;6.55;3.72;;;6.60;65.20;;;1.58;100.00;95055.41;4970676;28;20024;-54
2023/01/08 00:51:19;;;;;;;5.75;3.65;;;6.50;65.20;;;1.52;100.00;95055.47;4968511;28;20022;-55
2023/01/08 00:53:51;;;;;;;6.55;3.95;;;6.50;65.30;;;1.51;100.00;95059.13;4970855;28;20044;-56
2023/01/08 00:56:20;;;;;;;7.10;3.80;;;6.50;65.50;;;1.54;100.00;95058.69;4953141;28;20033;-57
2023/01/08 00:58:46;;;;;;;7.75;3.33;;;6.50;65.70;;;1.53;100.00;95060.50;4968508;28;20046;-54
2023/01/08 01:01:15;;;;;;;5.32;3.33;;;6.40;65.70;;;1.50;100.00;95054.88;4953459;28;20081;-52
2023/01/08 01:03:42;;;;;;;5.80;4.20;;;6.40;65.70;;;1.49;100.00;95054.09;4952040;28;20022;-54
2023/01/08 01:06:11;;;;;;;6.35;3.60;;;6.40;65.80;;;1.48;100.00;95063.00;4950927;28;20030;-55
2023/01/08 01:08:37;;;;;;;5.90;3.78;;;6.40;65.80;;;1.50;100.00;95074.06;4955578;28;20018;-55
2023/01/08 01:11:20;;;;;;;4.05;3.13;;;6.40;65.90;;;1.50;100.00;95063.56;4940342;28;20053;-53
2023/01/08 01:13:47;;;;;;;5.18;2.97;;;6.40;66.00;;;1.48;100.00;95062.22;4963458;28;20034;-54
2023/01/08 01:16:13;;;;;;;4.45;3.05;;;6.40;65.90;;;1.42;100.00;95063.88;4972571;28;20057;-52
2023/01/08 01:18:53;;;;;;;5.25;3.28;;;6.40;65.90;;;1.35;100.00;95063.16;4974616;28;20084;-55
2023/01/08 01:21:30;;;;;;;8.95;3.83;;;6.30;65.80;;;1.34;100.00;95069.41;4972060;28;20654;-53
2023/01/08 01:24:04;;;;;;;5.55;3.40;;;6.30;65.80;;;1.34;100.00;95061.53;4957471;28;20030;-54
2023/01/08 01:26:32;;;;;;;7.78;3.92;;;6.20;66.00;;;1.34;100.00;95064.97;4957063;28;20058;-53
2023/01/08 01:28:59;;;;;;;6.25;3.80;;;6.20;65.90;;;1.34;100.00;95058.91;4973440;28;20394;-52
2023/01/08 01:31:33;;;;;;;6.10;3.85;;;6.20;66.00;;;1.31;100.00;95054.91;4972882;28;20026;-56
2023/01/08 01:34:00;;;;;;;6.13;3.47;;;6.20;66.10;;;1.29;100.00;95058.78;4939584;28;20014;-53
2023/01/08 01:36:28;;;;;;;5.88;3.67;;;6.20;66.00;;;1.25;100.00;95061.03;4973497;28;20386;-53
2023/01/08 01:38:57;;;;;;;6.45;3.50;;;6.20;66.00;;;1.20;100.00;95066.16;4973831;28;20026;-55
2023/01/08 01:41:29;;;;;;;6.72;3.40;;;6.10;65.90;;;1.21;100.00;95069.56;4940897;28;20028;-52
2023/01/08 01:44:20;;;;;;;5.72;3.83;;;6.10;66.10;;;1.26;100.00;95077.59;4974020;28;20022;-57
2023/01/08 01:46:49;;;;;;;5.20;3.58;;;6.10;66.20;;;1.31;100.00;95072.47;4972279;28;20021;-52
2023/01/08 01:49:22;;;;;;;6.80;3.67;;;6.10;66.40;;;1.34;100.00;95072.03;4956341;28;20500;-53
2023/01/08 01:51:59;;;;;;;7.15;3.50;;;6.20;66.50;;;1.38;100.00;95067.97;4971738;28;20034;-58
2023/01/08 01:54:34;;;;;;;5.30;3.65;;;6.20;66.50;;;1.39;100.00;95064.31;4972867;28;20038;-52
2023/01/08 01:57:00;;;;;;;6.35;3.85;;;6.20;66.50;;;1.36;100.00;95059.50;4971079;28;20080;-54
2023/01/08 01:59:26;;;;;;;5.82;3.42;;;6.20;66.40;;;1.33;100.00;95050.25;4973449;28;20034;-55
2023/01/08 02:01:55;;;;;;;4.35;3.15;;;6.20;66.50;;;1.39;100.00;95059.06;4956483;28;20389;-59
2023/01/08 02:04:26;;;;;;;5.25;3.20;;;6.20;66.50;;;1.39;100.00;95059.88;4953546;28;20026;-56
2023/01/08 02:07:41;;;;;;;4.70;3.05;;;6.20;66.50;;;1.37;100.00;95050.59;4971649;28;20034;-55
2023/01/08 02:10:52;;;;;;;5.32;3.67;;;6.20;66.50;;;1.35;100.00;95027.22;4947673;28;20042;-52
2023/01/08 02:13:38;;;;;;;5.05;3.78;;;6.20;66.50;;;1.38;100.00;95031.22;4972386;28;20058;-55
2023/01/08 02:16:42;;;;;;;4.38;2.92;;;6.20;66.50;;;1.39;100.00;95027.56;4971005;28;20027;-55
2023/01/08 02:19:58;;;;;;;4.28;2.88;;;6.30;66.60;;;1.44;100.00;95013.78;4968496;28;20096;-59
2023/01/08 02:23:14;;;;;;;4.85;3.00;;;6.30;66.70;;;1.54;100.00;94993.06;4953037;28;20030;-58
2023/01/08 02:26:29;;;;;;;4.68;2.60;;;6.30;66.80;;;1.60;100.00;94986.94;4965548;28;20034;-58
2023/01/08 02:29:11;;;;;;;4.28;3.00;;;6.30;66.90;;;1.61;100.00;94970.94;4972124;28;20033;-54
2023/01/08 02:31:46;;;;;;;4.57;2.70;;;6.40;66.90;;;1.69;100.00;94954.06;4972873;28;20030;-56
2023/01/08 02:34:13;;;;;;;5.20;3.03;;;6.40;66.90;;;1.76;100.00;94954.78;4954406;28;20034;-55
2023/01/08 02:36:55;;;;;;;3.80;2.90;;;6.50;66.90;;;1.79;100.00;94950.91;4972291;28;20045;-55
2023/01/08 02:40:01;;;;;;;6.25;2.97;;;6.60;67.00;;;1.88;100.00;94954.81;4970687;28;20024;-56
2023/01/08 02:42:42;;;;;;;3.78;2.70;;;6.70;66.80;;;1.94;100.00;94946.00;4955595;28;20438;-54
2023/01/08 02:45:58;;;;;;;4.82;3.05;;;6.70;66.90;;;2.12;100.00;94949.59;4971755;28;20057;-55
2023/01/08 02:48:44;;;;;;;3.78;2.65;;;6.80;67.00;;;2.19;100.00;94947.66;4972388;28;20031;-56
2023/01/08 02:51:28;;;;;;;3.20;2.33;;;6.90;67.00;;;2.28;100.00;94954.19;4952867;28;20536;-52
2023/01/08 02:54:22;;;;;;;4.50;2.63;;;7.00;67.00;;;2.34;100.00;94950.63;4968111;28;20058;-55
2023/01/08 02:57:09;;;;;;;3.67;2.30;;;7.00;66.90;;;2.38;100.00;94943.09;4952746;28;20030;-53
2023/01/08 02:59:45;;;;;;;3.78;2.60;;;7.10;66.70;;;2.35;100.00;94941.75;4965102;28;20026;-56
2023/01/08 03:02:15;;;;;;;3.78;2.70;;;7.10;66.50;;;2.35;100.00;94940.91;4971460;28;20034;-54
2023/01/08 03:04:56;;;;;;;4.30;2.60;;;7.20;66.60;;;2.33;99.89;94927.22;4971693;28;20033;-52
2023/01/08 03:07:22;;;;;;;3.92;2.53;;;7.20;66.40;;;2.26;99.66;94924.72;4967816;28;20027;-55
2023/01/08 03:09:49;;;;;;;3.78;2.80;;;7.20;66.20;;;2.23;100.00;94928.59;4965938;28;20042;-55
2023/01/08 03:12:56;;;;;;;4.82;2.65;;;7.20;66.10;;;2.25;100.00;94933.59;4963106;28;20605;-55
2023/01/08 03:16:09;;;;;;;6.70;2.88;;;7.20;66.10;;;2.30;100.00;94929.28;4957720;28;20037;-56
2023/01/08 03:19:05;;;;;;;4.10;2.88;;;7.30;66.10;;;2.33;100.00;94921.97;4893685;29;20044;-56
2023/01/08 03:21:36;;;;;;;5.65;3.33;;;7.20;66.20;;;2.37;100.00;94921.25;4892383;29;20071;-56
2023/01/08 03:24:31;;;;;;;3.78;2.72;;;7.30;66.30;;;2.43;100.00;94919.56;4936798;28;20309;-58
2023/01/08 03:27:05;;;;;;;3.90;2.55;;;7.40;66.30;;;2.48;100.00;94914.41;4969307;28;20084;-55
2023/01/08 03:29:54;;;;;;;3.67;2.72;;;7.30;66.30;;;2.49;100.00;94905.50;4968725;28;20026;-55
2023/01/08 03:32:26;;;;;;;7.13;3.22;;;7.40;66.40;;;2.55;100.00;94907.22;4967792;28;20077;-57
2023/01/08 03:34:58;;;;;;;5.07;3.33;;;7.50;67.20;;;2.60;100.00;94907.31;4962821;28;20435;-52
2023/01/08 03:37:38;;;;;;;5.43;2.90;;;7.50;66.40;;;2.65;100.00;94911.88;4954258;28;20030;-52
2023/01/08 03:40:30;;;;;;;3.65;2.53;;;7.50;66.40;;;2.70;100.00;94917.25;4969351;28;20041;-54
2023/01/08 03:42:56;;;;;;;4.90;2.70;;;7.60;66.40;;;2.72;100.00;94913.34;4959491;28;20025;-53
2023/01/08 03:45:31;;;;;;;6.53;3.40;;;7.60;66.30;;;2.71;100.00;94921.47;4968555;28;20037;-54
2023/01/08 03:48:06;;;;;;;4.72;2.78;;;7.60;66.40;;;2.76;100.00;94916.34;4934800;28;20126;-52
2023/01/08 03:50:35;;;;;;;6.70;2.95;;;7.70;66.40;;;2.80;100.00;94912.19;4951819;28;20471;-56
2023/01/08 03:53:08;;;;;;;4.25;2.58;;;7.70;66.30;;;2.79;100.00;94905.34;4965796;28;20469;-53
2023/01/08 03:55:43;;;;;;;4.45;3.08;;;7.80;66.20;;;2.75;100.00;94912.88;4952996;28;20767;-52
2023/01/08 03:58:12;;;;;;;4.10;2.83;;;7.80;66.20;;;2.72;100.00;94915.97;4952754;28;20121;-52
2023/01/08 04:00:41;;;;;;;3.42;2.72;;;7.80;66.20;;;2.73;100.00;94901.00;4949243;28;20033;-51
2023/01/08 04:03:17;;;;;;;4.05;2.88;;;7.80;66.10;;;2.73;100.00;94911.53;4966464;28;20033;-54
2023/01/08 04:05:46;;;;;;;3.53;2.78;;;7.80;66.10;;;2.77;100.00;94918.72;4945204;28;20033;-53
2023/01/08 04:08:15;;;;;;;5.57;2.92;;;7.80;66.10;;;2.79;100.00;94918.50;4968581;28;20033;-59
2023/01/08 04:10:44;;;;;;;3.53;2.67;;;7.80;66.20;;;2.80;100.00;94914.84;4961746;28;20498;-59
2023/01/08 04:13:13;;;;;;;4.68;2.80;;;7.80;66.10;;;2.78;100.00;94901.09;4970103;28;20507;-57
2023/01/08 04:15:50;;;;;;;3.65;2.83;;;7.80;66.20;;;2.80;100.00;94909.56;4968639;28;20057;-56
2023/01/08 04:18:22;;;;;;;4.35;2.75;;;7.80;66.20;;;2.84;100.00;94902.00;4969227;28;20081;-58
2023/01/08 04:20:48;;;;;;;3.88;3.00;;;7.80;66.30;;;2.81;100.00;94900.63;4936220;28;20091;-54
2023/01/08 04:23:15;;;;;;;3.95;2.55;;;7.80;66.20;;;2.82;100.00;94904.06;4968558;28;20026;-52
2023/01/08 04:25:43;;;;;;;6.20;3.10;;;7.80;66.20;;;2.80;100.00;94890.38;4969658;28;20037;-55
2023/01/08 04:28:15;;;;;;;4.85;2.85;;;7.80;66.20;;;2.81;100.00;94905.09;4951095;28;20025;-52
2023/01/08 04:30:51;;;;;;;3.35;2.47;;;7.80;66.20;;;2.80;100.00;94904.31;4952307;28;20033;-57
2023/01/08 04:33:17;;;;;;;4.78;2.50;;;7.80;66.20;;;2.85;100.00;94920.19;4968116;28;20034;-57
2023/01/08 04:35:43;;;;;;;3.63;2.88;;;7.80;66.20;;;2.83;100.00;94929.34;4968985;28;20026;-54
2023/01/08 04:38:11;;;;;;;2.67;2.10;;;7.80;66.20;;;2.85;100.00;94912.31;4969374;28;20113;-53
2023/01/08 04:40:44;;;;;;;4.00;2.90;;;7.80;66.20;;;2.89;100.00;94917.91;4950460;28;20022;-57
2023/01/08 04:43:09;;;;;;;4.22;2.60;;;7.90;66.30;;;2.87;100.00;94923.38;4952905;28;20107;-59
2023/01/08 04:45:35;;;;;;;3.90;2.60;;;7.90;66.20;;;2.89;100.00;94921.34;4967859;28;20030;-57
2023/01/08 04:48:10;;;;;;;4.10;2.92;;;7.90;66.20;;;2.79;100.00;94931.66;4969020;28;20493;-58
2023/01/08 04:50:39;;;;;;;5.07;3.42;;;7.90;66.20;;;2.85;100.00;94932.53;4951816;28;20037;-56
2023/01/08 04:53:09;;;;;;;5.68;3.03;;;7.90;66.30;;;2.87;100.00;94919.97;4968010;28;20456;-54
2023/01/08 04:55:41;;;;;;;4.60;2.75;;;7.90;66.30;;;2.92;100.00;94922.69;4968506;28;20493;-54
2023/01/08 04:58:07;;;;;;;4.18;2.60;;;7.90;66.30;;;2.92;100.00;94920.06;4961212;28;20030;-57
2023/01/08 05:00:37;;;;;;;3.85;2.92;;;7.90;66.30;;;2.85;100.00;94909.69;4969260;28;20532;-54
2023/01/08 05:03:03;;;;;;;4.68;2.60;;;7.90;66.20;;;2.92;100.00;94918.25;4949785;28;20104;-55
2023/01/08 05:05:34;;;;;;;4.43;2.40;;;7.90;66.30;;;2.95;100.00;94911.72;4967282;28;20109;-56
2023/01/08 05:08:04;;;;;;;5.00;2.83;;;7.90;66.30;;;2.97;100.00;94917.53;4951875;28;20034;-55
2023/01/08 05:10:30;;;;;;;3.58;2.53;;;7.90;66.20;;;2.89;100.00;94917.91;4966281;28;20049;-52
2023/01/08 05:13:05;;;;;;;3.25;2.35;;;7.90;66.20;;;2.95;100.00;94924.88;4967152;28;20163;-52
2023/01/08 05:15:34;;;;;;;3.55;2.40;;;7.90;66.30;;;2.98;99.90;94919.94;4950284;28;20033;-55
2023/01/08 05:18:06;;;;;;;3.55;2.15;;;7.90;66.30;;;3.01;99.77;94913.41;4951657;28;20030;-53
2023/01/08 05:20:36;;;;;;;3.65;2.40;;;7.90;66.30;;;3.04;100.00;94917.38;4967960;28;20018;-53
2023/01/08 05:23:03;;;;;;;3.17;2.22;;;7.90;66.30;;;3.05;100.00;94924.28;4968623;28;20040;-56
2023/01/08 05:25:28;;;;;;;2.72;2.30;;;8.00;66.30;;;3.05;100.00;94934.81;4951062;28;20056;-55
2023/01/08 05:27:54;;;;;;;1.83;1.60;;;8.00;66.30;;;3.07;100.00;94925.66;4963969;28;20476;-55
2023/01/08 05:30:29;;;;;;;4.07;2.03;;;8.00;66.30;;;3.13;99.31;94942.31;4968732;28;20030;-57
2023/01/08 05:32:55;;;;;;;3.33;2.17;;;8.00;66.30;;;3.16;98.63;94934.75;4950416;28;20022;-56
2023/01/08 05:35:23;;;;;;;4.80;2.15;;;8.10;66.30;;;3.21;98.70;94942.75;4948345;29;20026;-56
2023/01/08 05:37:49;;;;;;;3.17;2.00;;;8.10;66.30;;;3.30;98.67;94945.81;4958799;28;20432;-53
2023/01/08 05:40:15;;;;;;;2.92;2.00;;;8.20;66.40;;;3.34;97.93;94952.19;4965930;28;20014;-55
2023/01/08 05:42:41;;;;;;;3.42;2.30;;;8.20;66.30;;;3.37;98.21;94943.03;4967021;28;20033;-58
2023/01/08 05:45:08;;;;;;;4.43;1.90;;;8.30;66.20;;;3.40;97.76;94946.00;4949230;28;20028;-57
2023/01/08 05:47:37;;;;;;;3.00;1.80;;;8.30;66.20;;;3.47;96.65;94937.97;4968642;28;20057;-54
2023/01/08 05:50:03;;;;;;;5.15;2.40;;;8.40;66.20;;;3.60;96.07;94932.41;4950836;28;20374;-53
2023/01/08 05:52:29;;;;;;;3.22;2.25;;;8.40;66.20;;;3.74;95.83;94940.81;4967366;28;20121;-56
2023/01/08 05:54:55;;;;;;;5.50;2.30;;;8.50;66.30;;;3.91;95.49;94933.72;4970152;28;20508;-51
2023/01/08 05:57:27;;;;;;;2.92;2.30;;;8.60;66.40;;;4.08;95.37;94938.22;4969870;28;20034;-52
2023/01/08 05:59:53;;;;;;;3.72;2.67;;;8.70;66.40;;;4.22;94.19;94938.69;4951972;28;20027;-54
2023/01/08 06:02:19;;;;;;;3.30;2.40;;;8.80;66.30;;;4.30;94.10;94944.38;4952898;28;20041;-53
2023/01/08 06:04:45;;;;;;;3.88;2.78;;;8.90;66.30;;;4.38;93.74;94948.44;4970128;28;20091;-52
2023/01/08 06:07:11;;;;;;;3.67;2.45;;;9.00;66.20;;;4.43;93.22;94935.34;4971773;28;20377;-53
2023/01/08 06:09:37;;;;;;;5.25;2.70;;;9.10;66.00;;;4.47;93.08;94941.72;4986373;23;20038;-50
2023/01/08 06:12:06;;;;;;;4.30;2.35;;;9.10;65.80;;;4.52;92.97;94941.00;4989410;28;20080;-50
2023/01/08 06:14:35;;;;;;;5.82;2.60;;;9.20;65.70;;;4.55;92.76;94943.16;4990988;28;20030;-52
2023/01/08 06:17:07;;;;;;;4.18;2.85;;;9.30;65.60;;;4.57;92.34;94926.03;4992335;28;20029;-50
2023/01/08 06:19:33;;;;;;;9.50;3.20;;;9.30;65.50;;;4.61;92.71;94936.94;5011997;28;20048;-50
2023/01/08 06:22:01;;;;;;;7.15;2.80;;;9.40;65.30;;;4.63;92.78;94935.63;5002900;28;20416;-55
2023/01/08 06:24:27;;;;;;;4.00;2.70;;;9.40;65.20;;;4.68;93.08;94942.03;4998854;28;20128;-51
2023/01/08 06:26:56;;;;;;;5.13;3.08;;;9.50;65.20;;;4.72;92.48;94946.56;4992382;28;20045;-49
2023/01/08 06:29:28;;;;;;;4.70;3.20;;;9.50;65.20;;;4.78;92.30;94952.72;4988445;28;20029;-50
2023/01/08 06:31:54;;;;;;;5.03;3.45;;;9.60;65.10;;;4.80;92.07;94946.16;4999907;28;20060;-56
2023/01/08 06:34:25;;;;;;;4.05;2.85;;;9.60;65.00;;;4.83;92.38;94945.66;4993665;28;20099;-50
2023/01/08 06:36:50;;;;;;;4.38;3.08;;;9.60;64.90;;;4.87;92.42;94930.94;5010271;28;20025;-48
2023/01/08 06:39:19;;;;;;;6.53;3.17;;;9.60;64.90;;;4.91;91.91;94925.97;5007620;28;20087;-49
2023/01/08 06:41:44;;;;;;;5.05;3.20;;;9.70;64.80;;;4.90;92.05;94924.38;4973509;28;20072;-53
2023/01/08 06:44:13;;;;;;;4.90;3.05;;;9.70;64.80;;;4.91;91.92;94902.22;5015386;28;20102;-49
2023/01/08 06:46:42;;;;;;;5.80;3.25;;;9.70;64.60;;;4.89;91.89;94901.69;5014700;28;20033;-51
2023/01/08 06:49:08;;;;;;;4.53;3.40;;;9.80;64.60;;;4.86;92.12;94913.50;4987361;28;20016;-50
2023/01/08 06:51:36;;;;;;;5.45;3.55;;;9.80;64.50;;;4.87;92.62;94922.22;5015310;28;20547;-55
2023/01/08 06:54:09;;;;;;;4.18;3.35;;;9.80;64.50;;;4.86;92.73;94918.00;4989294;28;20025;-49
2023/01/08 06:56:34;;;;;;;3.83;2.88;;;9.80;64.50;;;4.85;93.41;94898.69;5024995;28;20047;-57
2023/01/08 06:59:06;;;;;;;5.13;3.60;;;9.80;64.50;;;4.86;93.44;94908.25;5017654;28;20021;-49
2023/01/08 07:01:34;;;;;;;6.30;3.45;;;9.80;64.50;;;4.85;93.86;94906.63;4998059;28;20087;-50
2023/01/08 07:04:00;;;;;;;6.35;4.38;;;9.80;64.50;;;4.86;93.72;94900.31;4983031;28;20112;-49
2023/01/08 07:06:26;;;;;;;4.55;3.45;;;9.70;64.40;;;4.81;94.25;94897.59;4996972;28;20109;-51
2023/01/08 07:08:52;;;;;;;5.25;3.83;;;9.70;64.50;;;4.83;94.69;94892.91;5022222;28;20036;-51
2023/01/08 07:11:18;;;;;;;7.03;3.80;;;9.80;64.60;;;4.86;95.25;94894.25;5009324;28;20057;-49
2023/01/08 07:13:46;;;;;;;4.55;3.35;;;9.70;64.60;;;4.88;94.93;94900.84;4993174;28;20067;-49
2023/01/08 07:16:14;;;;;;;5.28;3.70;;;9.80;64.80;;;4.89;95.29;94901.69;5000865;28;20026;-52
2023/01/08 07:18:41;;;;;;;5.95;3.80;;;9.80;64.80;;;4.90;95.22;94905.91;5018655;28;20032;-51
2023/01/08 07:21:09;;;;;;;6.75;4.25;;;9.80;64.90;;;4.86;95.23;94912.72;5013598;28;20021;-53
2023/01/08 07:23:37;;;;;;;6.18;3.92;;;9.80;64.90;;;4.87;95.34;94907.19;4992662;28;20124;-51
2023/01/08 07:26:08;;;;;;;5.30;4.18;;;9.80;64.80;;;4.86;95.38;94888.97;4976045;28;20435;-49
2023/01/08 07:28:34;;;;;;;5.70;4.10;;;9.70;64.80;;;4.73;98.52;94853.19;4991289;28;20033;-55
2023/01/08 07:31:12;;;;;;;5.80;3.47;;;9.80;64.90;;;4.71;98.05;94873.75;5009816;28;20035;-54
2023/01/08 07:33:41;;;;;;;7.47;3.80;;;9.70;64.90;;;4.66;98.61;94863.09;5004384;28;20030;-49
2023/01/08 07:36:09;;;;;;;5.95;3.97;;;9.70;64.90;;;4.68;98.88;94878.72;4999704;28;20036;-56
2023/01/08 07:38:36;;;;;;;6.80;4.18;;;9.60;64.90;;;4.70;98.60;94881.88;5009549;28;20028;-54
2023/01/08 07:41:03;;;;;;;5.28;3.53;;;9.70;65.00;;;4.71;98.29;94883.50;5008588;28;20475;-54
2023/01/08 07:43:35;;;;;;;5.35;3.72;;;9.60;65.10;;;4.70;98.82;94880.06;4989013;28;20025;-56
2023/01/08 07:46:02;;;;;;;6.43;4.30;;;9.60;65.30;;;4.70;99.00;94890.63;4978595;28;20033;-55
2023/01/08 07:48:34;;;;;;;5.13;4.05;;;9.60;65.30;;;4.66;99.43;94892.13;4976104;28;20021;-53
2023/01/08 07:51:07;;;;;;;6.10;3.90;;;9.70;65.40;;;4.66;99.66;94892.13;5004282;28;20045;-55
2023/01/08 07:53:37;;;;;;;5.88;3.85;;;9.60;65.40;;;4.68;99.83;94905.09;5005279;28;20025;-54
2023/01/08 07:56:08;;;;;;;5.07;3.47;;;9.60;65.40;;;4.67;100.00;94914.84;5009113;28;20036;-54
2023/01/08 07:58:37;;;;;;;7.22;3.95;;;9.60;65.50;;;4.64;100.00;94933.81;5000012;28;20025;-54
2023/01/08 08:01:08;;;;;;;7.43;3.90;;;9.60;65.50;;;4.59;100.00;94929.25;4991915;28;20033;-54
2023/01/08 08:03:34;;;;;;;5.55;4.07;;;9.60;65.50;;;4.61;100.00;94936.94;4987122;28;20463;-49
2023/01/08 08:06:00;;;;;;;5.53;3.63;;;9.60;65.60;;;4.63;100.00;94946.16;4986364;28;20059;-52
2023/01/08 08:08:36;;;;;;;5.07;3.78;;;9.60;65.60;;;4.68;100.00;94937.53;4991689;28;20028;-51
2023/01/08 08:11:02;;;;;;;8.98;3.33;;;9.60;65.80;;;4.74;100.00;94949.75;5007198;28;20053;-52
2023/01/08 08:13:41;;;;;;;5.13;3.33;;;9.60;66.60;;;4.78;100.00;94947.44;5009506;28;20075;-51
2023/01/08 08:16:09;;;;;;;5.18;3.58;;;9.60;66.00;;;4.80;100.00;94956.72;4973209;28;38023;-54
2023/01/08 08:18:36;;;;;;;6.68;4.07;;;9.60;65.90;;;4.85;100.00;94951.47;5009223;28;20018;-54
2023/01/08 08:21:02;;;;;;;4.93;3.42;;;9.70;66.10;;;4.90;100.00;94944.69;4991188;28;20032;-54
2023/01/08 08:23:28;;;;;;;4.15;2.85;;;9.70;66.10;;;4.92;100.00;94943.41;4980005;28;20021;-55
2023/01/08 08:25:57;;;;;;;5.88;3.50;;;9.80;66.20;;;4.94;100.00;94937.88;5009039;28;20128;-59
2023/01/08 08:28:23;;;;;;;5.50;3.45;;;9.80;66.20;;;4.96;100.00;94943.72;5004906;28;20029;-51
2023/01/08 08:30:51;;;;;;;10.68;5.65;;;9.80;66.10;;;4.93;100.00;94945.00;5008954;28;20075;-54
2023/01/08 08:33:17;;;;;;;9.13;3.70;;;9.90;66.20;;;4.97;100.00;94953.22;4989023;28;20045;-51
2023/01/08 08:35:50;;;;;;;5.28;3.83;;;9.90;66.10;;;4.98;100.00;94949.53;4977377;28;20056;-50
2023/01/08 08:38:21;;;;;;;5.38;4.03;;;9.90;66.20;;;5.00;100.00;94968.56;5008934;28;20472;-50
2023/01/08 08:40:47;;;;;;;6.18;4.28;;;9.90;66.20;;;4.99;100.00;94970.44;4996725;28;20037;-49
2023/01/08 08:43:13;;;;;;;15.93;9.23;;;9.90;66.10;;;5.02;100.00;94963.88;5009440;28;20031;-49
2023/01/08 08:45:42;;;;;;;11.15;6.57;;;10.00;66.20;;;5.04;100.00;94972.31;4988341;28;20070;-52
2023/01/08 08:48:10;;;;;;;6.93;3.70;;;10.00;66.30;;;4.98;100.00;94968.00;5004466;28;20175;-55
2023/01/08 08:50:44;;;;;;;5.28;3.28;;;10.00;66.30;;;5.03;100.00;94979.44;5005465;28;20497;-53
2023/01/08 08:53:19;;;;;;;9.77;3.75;;;10.00;66.30;;;5.05;100.00;94969.44;5007929;28;20052;-50
2023/01/08 08:55:45;;;;;;;4.85;3.30;;;10.00;66.30;;;5.11;100.00;94970.31;5008223;28;20048;-54
2023/01/08 08:58:22;;;;;;;7.93;3.38;;;10.00;66.30;;;5.18;100.00;94968.28;4998168;28;20112;-50
2023/01/08 09:00:48;;;;;;;4.90;2.97;;;10.10;66.40;;;5.25;100.00;94974.19;4991784;28;20034;-53
2023/01/08 09:03:15;;;;;;;3.85;2.90;;;10.10;66.30;;;5.28;100.00;94981.59;4989826;28;20519;-54
2023/01/08 09:05:44;;;;;;;4.47;2.78;;;10.20;66.40;;;5.36;100.00;94974.28;4972171;28;20025;-50
2023/01/08 09:08:16;;;;;;;3.97;2.85;;;10.10;66.40;;;5.39;99.76;94974.63;5008170;28;20017;-51
2023/01/08 09:10:42;;;;;;;5.97;3.03;;;10.10;66.40;;;5.43;100.00;94983.66;5002913;28;20049;-49
2023/01/08 09:13:12;;;;;;;5.85;3.10;;;10.20;66.50;;;5.45;100.00;94972.81;5008474;28;20029;-49
2023/01/08 09:15:44;;;;;;;4.47;3.03;;;10.20;66.60;;;5.46;99.97;94969.16;4986115;28;20026;-51
2023/01/08 09:18:15;;;;;;;5.03;2.88;;;10.30;66.60;;;5.48;100.00;94964.41;5006332;28;20384;-52
2023/01/08 09:20:41;;;;;;;4.55;3.30;;;10.30;66.60;;;5.49;100.00;94968.66;5008589;28;20030;-53
2023/01/08 09:23:16;;;;;;;5.35;3.60;;;10.30;66.60;;;5.49;100.00;94966.00;4973456;28;20031;-51
2023/01/08 09:25:45;;;;;;;7.15;3.25;;;10.30;66.60;;;5.47;100.00;94971.53;5003591;28;20103;-49
2023/01/08 09:28:16;;;;;;;6.20;3.33;;;10.30;66.60;;;5.47;100.00;94974.16;4983495;28;20106;-52
2023/01/08 09:30:44;;;;;;;4.72;3.28;;;10.30;66.60;;;5.43;100.00;94967.00;4993228;28;20021;-53
2023/01/08 09:33:10;;;;;;;4.80;3.55;;;10.30;66.50;;;5.40;100.00;94960.38;5010004;28;20392;-49
2023/01/08 09:35:38;;;;;;;8.15;3.78;;;10.30;66.60;;;5.41;100.00;94969.88;4985640;28;20028;-51
2023/01/08 09:38:04;;;;;;;4.63;3.40;;;10.30;66.60;;;5.43;100.00;94967.00;4975000;28;20025;-55
2023/01/08 09:41:01;;;;;;;6.65;3.38;;;10.30;66.60;;;5.42;100.00;94968.84;4973693;28;20021;-52
2023/01/08 09:43:35;;;;;;;4.45;3.45;;;10.30;66.70;;;5.43;100.00;94965.16;5005351;28;20040;-55
2023/01/08 09:46:06;;;;;;;5.22;3.42;;;10.30;66.80;;;5.39;100.00;94961.41;4970028;28;20517;-52
2023/01/08 09:48:40;;;;;;;7.60;3.38;;;10.30;66.80;;;5.42;100.00;94970.66;4977637;28;20035;-50
2023/01/08 09:51:18;;;;;;;4.97;3.45;;;10.30;66.80;;;5.45;100.00;94971.00;5008287;28;20406;-57
2023/01/08 09:53:49;;;;;;;6.93;3.33;;;10.30;66.90;;;5.49;100.00;94966.00;4989927;28;20055;-54
2023/01/08 09:56:20;;;;;;;5.20;3.50;;;10.30;66.90;;;5.51;100.00;94966.53;4991933;28;20033;-56
2023/01/08 09:59:02;;;;;;;6.68;3.45;;;10.30;67.10;;;5.51;100.00;94958.63;4988471;28;20021;-52
2023/01/08 10:01:36;;;;;;;4.00;2.92;;;10.30;67.20;;;5.55;100.00;94965.03;4992842;28;20037;-53
2023/01/08 10:04:32;;;;;;;17.17;10.75;;;10.30;67.20;;;5.58;100.00;94956.59;4975050;28;20186;-54
2023/01/08 10:07:23;;;;;;;20.95;10.73;;;10.40;67.30;;;5.59;100.00;94958.19;4971625;28;20106;-54
2023/01/08 10:09:51;;;;;;;4.60;3.38;;;10.40;67.40;;;5.63;100.00;94958.50;4970810;28;20545;-52
2023/01/08 10:12:35;;;;;;;5.95;3.80;;;10.40;67.30;;;5.62;100.00;94947.13;4991087;28;20047;-54
2023/01/08 10:15:14;;;;;;;5.68;3.40;;;10.50;67.40;;;5.65;100.00;94949.28;5008130;28;20479;-52
2023/01/08 10:18:05;;;;;;;5.72;3.88;;;10.50;67.40;;;5.68;100.00;94943.50;4975006;28;20563;-50
2023/01/08 10:20:38;;;;;;;5.70;4.53;;;10.60;67.50;;;5.69;100.00;94933.72;5007515;28;20511;-50
2023/01/08 10:23:21;;;;;;;8.02;4.93;;;10.60;67.40;;;5.75;100.00;94928.22;4973160;28;20130;-50
2023/01/08 10:26:02;;;;;;;7.28;4.57;;;10.70;67.40;;;5.79;100.00;94921.38;4985630;28;20488;-50
2023/01/08 10:28:34;;;;;;;5.97;3.72;;;10.70;67.40;;;5.82;100.00;94909.53;4978103;28;20043;-55
2023/01/08 10:31:15;;;;;;;5.95;4.65;;;10.80;67.40;;;5.90;100.00;94903.78;4988763;28;20037;-53
2023/01/08 10:33:49;;;;;;;5.85;3.67;;;10.90;67.30;;;5.98;100.00;94897.25;4975626;28;20614;-52
2023/01/08 10:36:26;;;;;;;6.47;4.65;;;11.00;67.30;;;6.01;100.00;94884.34;4987742;28;20039;-57
2023/01/08 10:39:05;;;;;;;6.25;3.63;;;11.10;67.30;;;6.06;100.00;94877.50;5016544;28;20032;-51
2023/01/08 10:41:38;;;;;;;7.15;3.88;;;11.20;67.20;;;6.10;100.00;94873.31;4990708;28;20025;-53
2023/01/08 10:44:18;;;;;;;5.32;3.67;;;11.30;67.50;;;6.12;100.00;94872.00;4990452;28;20018;-49
2023/01/08 10:46:56;;;;;;;5.00;4.10;;;11.30;67.00;;;6.15;100.00;94865.41;4991618;28;20033;-58
2023/01/08 10:49:44;;;;;;;5.32;3.53;;;11.30;66.90;;;6.20;100.00;94874.16;4988132;28;20549;-53
2023/01/08 10:52:35;;;;;;;6.97;3.90;;;11.40;66.90;;;6.22;100.00;94874.72;4969589;28;20033;-52